Accueil
METAR-TAF:

METAR-TAF

Aéroports :

Capo Bellavista

Tortolì, Italie

latitude: 39-56N, longitude: 009-43E, altitude: 138 m

Observation

Le bulletin a été fait il y a 31 minutes, à 19:55 UTC
Vent 7 kt de ouest/sud-ouest
Température 18°C
Humidité 73%
Pression 1015 hPa
Visibilité 10 km ou plus
Nuages épars à une hauteur de 4000 ft

METAR: LIEB 311955Z 24007KT 9999 SCT040 18/13 Q1015 RMK SCT QUK / QUL / VIS MAR 20 KM MON INVIS VIS MIN 9999

Heure: 22:26 (20:26 UTC)


TAF: absent

Observations et prévisions météorologiques de plus de 4000 aéroports (messages METAR et TAF).

Les stations disponibles sont représentées par des disques jaunes et rouges sur la carte.

Passer la souris dessus pour voir le nom de la station.

Cliquer dessus pour voir les observations et prévisions météorologiques.

Pour changer de carte: cliquez sur les boutons verts avec une croix noire pour zoomer, sur le bouton vert avec un tiret pour effectuer un zoom arrière, ou sur les flèches vertes pour les cartes adjacentes.


METAR-TAF: